Decoded Metar for LFPO (PARIS ORLY in FRANCE) (IATA:ORY) | Meteo·Mobile Aviation Weather
aviador You're here:

LFPO Decoded Metar

PARIS ORLY in FRANCE
Report Time2019-01-19 07:00:00
UTC Time2019-01-19 07:13:47
Flight Rules vfr VFR
Wind140° at 04 kt
W.Decomp.*RWY 20: 2.1 kt HW 3.4 kt LCW
RWY 08: 1.9 kt HW 3.5 kt RCW
RWY 06: 0.6 kt HW 4.0 kt RCW
W.Rank140° ranks 35
Current wind is below 140° avg. (4.5)
Visibility9999 m
Phenomena:N/A
Clouds:N/A
Expected CloudBase > 400 ft AGL from Temp-Dew spread
CeilingNone
Temp-2°C (ISA -16)
Dew Point-3°C (93% RH)
AAT-5.8°C
QNH1012 hPa
Density Alt-1,591 ft
Elevation315 ft
Report Wrong Elevation
Raw Report
LFPO 190700Z 14004KT CAVOK M02/M03 Q1012 NOSIG=

Extra information for LFPO:More info

Metar Taf Metar & Taf Last 4 Metars F.Rules Stats Wind Profile Meteogram Temp Stats Airport Information Weather charts Add Link Nearby VenuesMetar ALERT Operation Metar Decoded Social comments